sensor_id;sensor_type;location;lat;lon;timestamp;temperature;humidity
49236;DHT22;35067;48.134;8.378;2022-08-21T00:00:46;11.90;99.90
49236;DHT22;35067;48.134;8.378;2022-08-21T00:02:56;11.80;99.90
49236;DHT22;35067;48.134;8.378;2022-08-21T00:04:57;11.70;99.90
49236;DHT22;35067;48.134;8.378;2022-08-21T00:06:57;11.70;99.90
49236;DHT22;35067;48.134;8.378;2022-08-21T00:08:59;11.70;99.90
49236;DHT22;35067;48.134;8.378;2022-08-21T00:10:59;11.60;99.90
49236;DHT22;35067;48.134;8.378;2022-08-21T00:13:02;11.60;99.90
49236;DHT22;35067;48.134;8.378;2022-08-21T00:15:06;11.50;99.90
49236;DHT22;35067;48.134;8.378;2022-08-21T00:17:07;11.50;99.90
49236;DHT22;35067;48.134;8.378;2022-08-21T00:19:08;11.50;99.90
49236;DHT22;35067;48.134;8.378;2022-08-21T00:21:14;11.50;99.90
49236;DHT22;35067;48.134;8.378;2022-08-21T00:23:15;11.50;99.90
49236;DHT22;35067;48.134;8.378;2022-08-21T00:25:16;11.60;99.90
49236;DHT22;35067;48.134;8.378;2022-08-21T00:27:17;11.60;99.90
49236;DHT22;35067;48.134;8.378;2022-08-21T00:29:18;11.70;99.90
49236;DHT22;35067;48.134;8.378;2022-08-21T00:31:19;11.70;99.90
49236;DHT22;35067;48.134;8.378;2022-08-21T00:33:19;11.60;99.90
49236;DHT22;35067;48.134;8.378;2022-08-21T00:35:26;11.70;99.90
49236;DHT22;35067;48.134;8.378;2022-08-21T00:37:27;11.60;99.90
49236;DHT22;35067;48.134;8.378;2022-08-21T00:39:27;11.60;99.90
49236;DHT22;35067;48.134;8.378;2022-08-21T00:41:28;11.60;99.90
49236;DHT22;35067;48.134;8.378;2022-08-21T00:43:32;11.60;99.90
49236;DHT22;35067;48.134;8.378;2022-08-21T00:45:34;11.50;99.90
49236;DHT22;35067;48.134;8.378;2022-08-21T00:47:35;11.50;99.90
49236;DHT22;35067;48.134;8.378;2022-08-21T00:49:36;11.50;99.90
49236;DHT22;35067;48.134;8.378;2022-08-21T00:52:03;11.50;99.90
49236;DHT22;35067;48.134;8.378;2022-08-21T00:54:07;11.50;99.90
49236;DHT22;35067;48.134;8.378;2022-08-21T00:56:09;11.40;99.90
49236;DHT22;35067;48.134;8.378;2022-08-21T00:58:11;11.30;99.90
49236;DHT22;35067;48.134;8.378;2022-08-21T01:00:18;11.30;99.90
49236;DHT22;35067;48.134;8.378;2022-08-21T01:02:20;11.30;99.90
49236;DHT22;35067;48.134;8.378;2022-08-21T01:04:21;11.30;99.90
49236;DHT22;35067;48.134;8.378;2022-08-21T01:06:22;11.30;99.90
49236;DHT22;35067;48.134;8.378;2022-08-21T01:08:23;11.30;99.90
49236;DHT22;35067;48.134;8.378;2022-08-21T01:10:24;11.30;99.90
49236;DHT22;35067;48.134;8.378;2022-08-21T01:12:25;11.40;99.90
49236;DHT22;35067;48.134;8.378;2022-08-21T01:14:26;11.40;99.90
49236;DHT22;35067;48.134;8.378;2022-08-21T01:16:29;11.30;99.90
49236;DHT22;35067;48.134;8.378;2022-08-21T01:18:30;11.30;99.90
49236;DHT22;35067;48.134;8.378;2022-08-21T01:20:31;11.30;99.90
49236;DHT22;35067;48.134;8.378;2022-08-21T01:22:32;11.30;99.90
49236;DHT22;35067;48.134;8.378;2022-08-21T01:24:33;11.20;99.90
49236;DHT22;35067;48.134;8.378;2022-08-21T01:26:35;11.20;99.90
49236;DHT22;35067;48.134;8.378;2022-08-21T01:28:43;11.10;99.90
49236;DHT22;35067;48.134;8.378;2022-08-21T01:30:45;11.10;99.90
49236;DHT22;35067;48.134;8.378;2022-08-21T01:32:47;11.10;99.90
49236;DHT22;35067;48.134;8.378;2022-08-21T01:34:49;11.00;99.90
49236;DHT22;35067;48.134;8.378;2022-08-21T01:36:50;11.00;99.90
49236;DHT22;35067;48.134;8.378;2022-08-21T01:38:51;10.90;99.90
49236;DHT22;35067;48.134;8.378;2022-08-21T01:40:52;10.90;99.90
49236;DHT22;35067;48.134;8.378;2022-08-21T01:42:52;10.80;99.90
49236;DHT22;35067;48.134;8.378;2022-08-21T01:44:53;10.70;99.90
49236;DHT22;35067;48.134;8.378;2022-08-21T01:46:57;10.70;99.90
49236;DHT22;35067;48.134;8.378;2022-08-21T01:48:58;10.60;99.90
49236;DHT22;35067;48.134;8.378;2022-08-21T01:50:59;10.70;99.90
49236;DHT22;35067;48.134;8.378;2022-08-21T01:53:00;10.70;99.90
49236;DHT22;35067;48.134;8.378;2022-08-21T01:55:00;10.80;99.90
49236;DHT22;35067;48.134;8.378;2022-08-21T01:57:01;10.80;99.90
49236;DHT22;35067;48.134;8.378;2022-08-21T01:59:02;10.90;99.90
49236;DHT22;35067;48.134;8.378;2022-08-21T02:01:03;10.80;99.90
49236;DHT22;35067;48.134;8.378;2022-08-21T02:03:04;10.80;99.90
49236;DHT22;35067;48.134;8.378;2022-08-21T02:05:05;10.80;99.90
49236;DHT22;35067;48.134;8.378;2022-08-21T02:07:06;10.70;99.90
49236;DHT22;35067;48.134;8.378;2022-08-21T02:09:08;10.70;99.90
49236;DHT22;35067;48.134;8.378;2022-08-21T02:11:09;10.70;99.90
49236;DHT22;35067;48.134;8.378;2022-08-21T02:13:09;10.70;99.90
49236;DHT22;35067;48.134;8.378;2022-08-21T02:15:10;10.70;99.90
49236;DHT22;35067;48.134;8.378;2022-08-21T02:17:11;10.70;99.90
49236;DHT22;35067;48.134;8.378;2022-08-21T02:19:13;10.80;99.90
49236;DHT22;35067;48.134;8.378;2022-08-21T02:21:14;10.80;99.90
49236;DHT22;35067;48.134;8.378;2022-08-21T02:23:15;10.80;99.90
49236;DHT22;35067;48.134;8.378;2022-08-21T02:25:18;10.90;99.90
49236;DHT22;35067;48.134;8.378;2022-08-21T02:27:18;11.00;99.90
49236;DHT22;35067;48.134;8.378;2022-08-21T02:29:19;11.00;99.90
49236;DHT22;35067;48.134;8.378;2022-08-21T02:31:20;11.00;99.90
49236;DHT22;35067;48.134;8.378;2022-08-21T02:33:20;11.00;99.90
49236;DHT22;35067;48.134;8.378;2022-08-21T02:35:21;11.00;99.90
49236;DHT22;35067;48.134;8.378;2022-08-21T02:37:23;11.00;99.90
49236;DHT22;35067;48.134;8.378;2022-08-21T02:39:24;11.00;99.90
49236;DHT22;35067;48.134;8.378;2022-08-21T02:41:24;10.80;99.90
49236;DHT22;35067;48.134;8.378;2022-08-21T02:43:27;10.70;99.90
49236;DHT22;35067;48.134;8.378;2022-08-21T02:45:28;10.70;99.90
49236;DHT22;35067;48.134;8.378;2022-08-21T02:47:29;10.80;99.90
49236;DHT22;35067;48.134;8.378;2022-08-21T02:49:29;10.80;99.90
49236;DHT22;35067;48.134;8.378;2022-08-21T02:51:30;10.80;99.90
49236;DHT22;35067;48.134;8.378;2022-08-21T02:53:31;10.80;99.90
49236;DHT22;35067;48.134;8.378;2022-08-21T02:55:33;10.80;99.90
49236;DHT22;35067;48.134;8.378;2022-08-21T02:57:34;10.60;99.90
49236;DHT22;35067;48.134;8.378;2022-08-21T02:59:34;10.60;99.90
49236;DHT22;35067;48.134;8.378;2022-08-21T03:01:35;10.60;99.90
49236;DHT22;35067;48.134;8.378;2022-08-21T03:03:38;10.60;99.90
49236;DHT22;35067;48.134;8.378;2022-08-21T03:05:39;10.70;99.90
49236;DHT22;35067;48.134;8.378;2022-08-21T03:07:41;10.80;99.90
49236;DHT22;35067;48.134;8.378;2022-08-21T03:09:42;10.70;99.90
49236;DHT22;35067;48.134;8.378;2022-08-21T03:11:43;10.60;99.90
49236;DHT22;35067;48.134;8.378;2022-08-21T03:13:44;10.50;99.90
49236;DHT22;35067;48.134;8.378;2022-08-21T03:15:45;10.40;99.90
49236;DHT22;35067;48.134;8.378;2022-08-21T03:17:46;10.30;99.90
49236;DHT22;35067;48.134;8.378;2022-08-21T03:19:47;10.40;99.90
49236;DHT22;35067;48.134;8.378;2022-08-21T03:21:47;10.30;99.90
49236;DHT22;35067;48.134;8.378;2022-08-21T03:23:48;10.40;99.90
49236;DHT22;35067;48.134;8.378;2022-08-21T03:25:48;10.30;99.90
49236;DHT22;35067;48.134;8.378;2022-08-21T03:27:51;10.30;99.90
49236;DHT22;35067;48.134;8.378;2022-08-21T03:29:52;10.30;99.90
49236;DHT22;35067;48.134;8.378;2022-08-21T03:31:52;10.30;99.90
49236;DHT22;35067;48.134;8.378;2022-08-21T03:33:56;10.20;99.90
49236;DHT22;35067;48.134;8.378;2022-08-21T03:36:03;10.20;99.90
49236;DHT22;35067;48.134;8.378;2022-08-21T03:38:04;10.20;99.90
49236;DHT22;35067;48.134;8.378;2022-08-21T03:40:07;10.20;99.90
49236;DHT22;35067;48.134;8.378;2022-08-21T03:42:08;10.30;99.90
49236;DHT22;35067;48.134;8.378;2022-08-21T03:44:09;10.30;99.90
49236;DHT22;35067;48.134;8.378;2022-08-21T03:46:10;10.30;99.90
49236;DHT22;35067;48.134;8.378;2022-08-21T03:48:10;10.40;99.90
49236;DHT22;35067;48.134;8.378;2022-08-21T03:50:11;10.30;99.90
49236;DHT22;35067;48.134;8.378;2022-08-21T03:52:12;10.30;99.90
49236;DHT22;35067;48.134;8.378;2022-08-21T03:54:12;10.20;99.90
49236;DHT22;35067;48.134;8.378;2022-08-21T03:56:13;10.30;99.90
49236;DHT22;35067;48.134;8.378;2022-08-21T03:58:18;10.40;99.90
49236;DHT22;35067;48.134;8.378;2022-08-21T04:00:20;10.30;99.90
49236;DHT22;35067;48.134;8.378;2022-08-21T04:02:21;10.30;99.90
49236;DHT22;35067;48.134;8.378;2022-08-21T04:04:22;10.30;99.90
49236;DHT22;35067;48.134;8.378;2022-08-21T04:06:23;10.30;99.90
49236;DHT22;35067;48.134;8.378;2022-08-21T04:08:23;10.30;99.90
49236;DHT22;35067;48.134;8.378;2022-08-21T04:10:25;10.30;99.90
49236;DHT22;35067;48.134;8.378;2022-08-21T04:12:26;10.30;99.90
49236;DHT22;35067;48.134;8.378;2022-08-21T04:14:27;10.30;99.90
49236;DHT22;35067;48.134;8.378;2022-08-21T04:16:27;10.20;99.90
49236;DHT22;35067;48.134;8.378;2022-08-21T04:18:28;10.20;99.90
49236;DHT22;35067;48.134;8.378;2022-08-21T04:20:29;10.30;99.90
49236;DHT22;35067;48.134;8.378;2022-08-21T04:22:29;10.30;99.90
49236;DHT22;35067;48.134;8.378;2022-08-21T04:24:30;10.30;99.90
49236;DHT22;35067;48.134;8.378;2022-08-21T04:26:30;10.30;99.90
49236;DHT22;35067;48.134;8.378;2022-08-21T04:28:31;10.30;99.90
49236;DHT22;35067;48.134;8.378;2022-08-21T04:30:32;10.30;99.90
49236;DHT22;35067;48.134;8.378;2022-08-21T04:32:32;10.30;99.90
49236;DHT22;35067;48.134;8.378;2022-08-21T04:34:33;10.40;99.90
49236;DHT22;35067;48.134;8.378;2022-08-21T04:36:33;10.30;99.90
49236;DHT22;35067;48.134;8.378;2022-08-21T04:38:34;10.20;99.90
49236;DHT22;35067;48.134;8.378;2022-08-21T04:40:35;10.20;99.90
49236;DHT22;35067;48.134;8.378;2022-08-21T04:42:45;10.20;99.90
49236;DHT22;35067;48.134;8.378;2022-08-21T04:44:47;10.10;99.90
49236;DHT22;35067;48.134;8.378;2022-08-21T04:46:49;10.10;99.90
49236;DHT22;35067;48.134;8.378;2022-08-21T04:48:49;10.20;99.90
49236;DHT22;35067;48.134;8.378;2022-08-21T04:53:00;10.30;99.90
49236;DHT22;35067;48.134;8.378;2022-08-21T04:55:01;10.40;99.90
49236;DHT22;35067;48.134;8.378;2022-08-21T04:57:05;10.40;99.90
49236;DHT22;35067;48.134;8.378;2022-08-21T04:59:13;10.50;99.90
49236;DHT22;35067;48.134;8.378;2022-08-21T05:01:21;10.60;99.90
49236;DHT22;35067;48.134;8.378;2022-08-21T05:03:23;10.60;99.90
49236;DHT22;35067;48.134;8.378;2022-08-21T05:05:24;10.70;99.90
49236;DHT22;35067;48.134;8.378;2022-08-21T05:07:27;10.60;99.90
49236;DHT22;35067;48.134;8.378;2022-08-21T05:09:29;10.60;99.90
49236;DHT22;35067;48.134;8.378;2022-08-21T05:11:31;10.60;99.90
49236;DHT22;35067;48.134;8.378;2022-08-21T05:13:32;10.60;99.90
49236;DHT22;35067;48.134;8.378;2022-08-21T05:15:33;10.60;99.90
49236;DHT22;35067;48.134;8.378;2022-08-21T05:17:34;10.60;99.90
49236;DHT22;35067;48.134;8.378;2022-08-21T05:19:35;10.70;99.90
49236;DHT22;35067;48.134;8.378;2022-08-21T05:21:38;10.70;99.90
49236;DHT22;35067;48.134;8.378;2022-08-21T05:23:40;10.70;99.90
49236;DHT22;35067;48.134;8.378;2022-08-21T05:25:41;10.70;99.90
49236;DHT22;35067;48.134;8.378;2022-08-21T05:27:41;10.70;99.90
49236;DHT22;35067;48.134;8.378;2022-08-21T05:29:42;10.80;99.90
49236;DHT22;35067;48.134;8.378;2022-08-21T05:31:44;10.90;99.90
49236;DHT22;35067;48.134;8.378;2022-08-21T05:33:45;11.00;99.90
49236;DHT22;35067;48.134;8.378;2022-08-21T05:35:48;11.10;99.90
49236;DHT22;35067;48.134;8.378;2022-08-21T05:37:51;11.10;99.90
49236;DHT22;35067;48.134;8.378;2022-08-21T05:39:52;11.20;99.90
49236;DHT22;35067;48.134;8.378;2022-08-21T05:41:52;11.30;99.90
49236;DHT22;35067;48.134;8.378;2022-08-21T05:43:53;11.30;99.90
49236;DHT22;35067;48.134;8.378;2022-08-21T05:45:53;11.40;99.90
49236;DHT22;35067;48.134;8.378;2022-08-21T05:47:54;11.40;99.90
49236;DHT22;35067;48.134;8.378;2022-08-21T05:49:55;11.50;99.90
49236;DHT22;35067;48.134;8.378;2022-08-21T05:51:55;11.70;99.90
49236;DHT22;35067;48.134;8.378;2022-08-21T05:53:56;11.70;99.90
49236;DHT22;35067;48.134;8.378;2022-08-21T05:55:56;11.80;99.90
49236;DHT22;35067;48.134;8.378;2022-08-21T05:57:57;11.90;99.90
49236;DHT22;35067;48.134;8.378;2022-08-21T05:59:57;12.00;99.90
49236;DHT22;35067;48.134;8.378;2022-08-21T06:01:58;12.20;99.90
49236;DHT22;35067;48.134;8.378;2022-08-21T06:03:58;12.20;99.90
49236;DHT22;35067;48.134;8.378;2022-08-21T06:05:59;12.40;99.90
49236;DHT22;35067;48.134;8.378;2022-08-21T06:08:00;12.40;99.90
49236;DHT22;35067;48.134;8.378;2022-08-21T06:10:01;12.50;99.90
49236;DHT22;35067;48.134;8.378;2022-08-21T06:12:06;12.70;99.90
49236;DHT22;35067;48.134;8.378;2022-08-21T06:14:06;12.90;99.90
49236;DHT22;35067;48.134;8.378;2022-08-21T06:16:10;13.00;99.90
49236;DHT22;35067;48.134;8.378;2022-08-21T06:18:11;13.40;99.90
49236;DHT22;35067;48.134;8.378;2022-08-21T06:20:12;13.50;99.90
49236;DHT22;35067;48.134;8.378;2022-08-21T06:22:12;13.60;99.90
49236;DHT22;35067;48.134;8.378;2022-08-21T06:24:13;13.70;99.90
49236;DHT22;35067;48.134;8.378;2022-08-21T06:26:14;13.80;99.90
49236;DHT22;35067;48.134;8.378;2022-08-21T06:28:14;13.90;99.90
49236;DHT22;35067;48.134;8.378;2022-08-21T06:30:15;14.00;99.90
49236;DHT22;35067;48.134;8.378;2022-08-21T06:32:15;14.10;99.90
49236;DHT22;35067;48.134;8.378;2022-08-21T06:34:17;14.30;99.90
49236;DHT22;35067;48.134;8.378;2022-08-21T06:36:19;14.40;99.90
49236;DHT22;35067;48.134;8.378;2022-08-21T06:38:21;14.40;99.90
49236;DHT22;35067;48.134;8.378;2022-08-21T06:40:21;14.40;99.90
49236;DHT22;35067;48.134;8.378;2022-08-21T06:42:22;14.50;99.90
49236;DHT22;35067;48.134;8.378;2022-08-21T06:44:22;14.60;99.90
49236;DHT22;35067;48.134;8.378;2022-08-21T06:46:25;14.70;99.90
49236;DHT22;35067;48.134;8.378;2022-08-21T06:48:26;14.80;99.90
49236;DHT22;35067;48.134;8.378;2022-08-21T06:50:27;14.70;99.90
49236;DHT22;35067;48.134;8.378;2022-08-21T06:52:28;14.80;99.90
49236;DHT22;35067;48.134;8.378;2022-08-21T06:54:29;14.80;99.90
49236;DHT22;35067;48.134;8.378;2022-08-21T06:56:30;14.90;99.90
49236;DHT22;35067;48.134;8.378;2022-08-21T06:58:33;14.90;99.90
49236;DHT22;35067;48.134;8.378;2022-08-21T07:00:35;14.90;99.90
49236;DHT22;35067;48.134;8.378;2022-08-21T07:02:36;14.90;99.90
49236;DHT22;35067;48.134;8.378;2022-08-21T07:04:37;14.80;99.90
49236;DHT22;35067;48.134;8.378;2022-08-21T07:06:37;14.60;99.90
49236;DHT22;35067;48.134;8.378;2022-08-21T07:08:39;14.50;99.90
49236;DHT22;35067;48.134;8.378;2022-08-21T07:10:39;14.40;99.90
49236;DHT22;35067;48.134;8.378;2022-08-21T07:12:40;14.40;99.90
49236;DHT22;35067;48.134;8.378;2022-08-21T07:14:41;14.40;99.90
49236;DHT22;35067;48.134;8.378;2022-08-21T07:16:43;14.30;99.90
49236;DHT22;35067;48.134;8.378;2022-08-21T07:18:43;14.40;99.90
49236;DHT22;35067;48.134;8.378;2022-08-21T07:20:44;14.40;99.90
49236;DHT22;35067;48.134;8.378;2022-08-21T07:22:45;14.30;99.90
49236;DHT22;35067;48.134;8.378;2022-08-21T07:24:46;14.30;99.90
49236;DHT22;35067;48.134;8.378;2022-08-21T07:26:47;14.30;99.90
49236;DHT22;35067;48.134;8.378;2022-08-21T07:28:48;14.50;99.90
49236;DHT22;35067;48.134;8.378;2022-08-21T07:30:55;14.70;99.90
49236;DHT22;35067;48.134;8.378;2022-08-21T07:32:56;14.80;99.90
49236;DHT22;35067;48.134;8.378;2022-08-21T07:34:57;15.00;99.90
49236;DHT22;35067;48.134;8.378;2022-08-21T07:36:58;15.20;99.90
49236;DHT22;35067;48.134;8.378;2022-08-21T07:38:59;15.10;99.90
49236;DHT22;35067;48.134;8.378;2022-08-21T07:41:00;15.20;99.90
49236;DHT22;35067;48.134;8.378;2022-08-21T07:43:02;15.30;99.90
49236;DHT22;35067;48.134;8.378;2022-08-21T07:45:03;15.50;99.90
49236;DHT22;35067;48.134;8.378;2022-08-21T07:47:04;15.70;99.90
49236;DHT22;35067;48.134;8.378;2022-08-21T07:49:05;16.00;99.90
49236;DHT22;35067;48.134;8.378;2022-08-21T07:51:12;16.30;99.30
49236;DHT22;35067;48.134;8.378;2022-08-21T07:53:13;16.60;99.40
49236;DHT22;35067;48.134;8.378;2022-08-21T07:55:17;17.20;91.60
49236;DHT22;35067;48.134;8.378;2022-08-21T07:57:17;17.50;92.90
49236;DHT22;35067;48.134;8.378;2022-08-21T07:59:18;17.90;92.70
49236;DHT22;35067;48.134;8.378;2022-08-21T08:01:19;18.20;74.10
49236;DHT22;35067;48.134;8.378;2022-08-21T08:03:20;18.30;85.40
49236;DHT22;35067;48.134;8.378;2022-08-21T08:05:26;18.70;79.60
49236;DHT22;35067;48.134;8.378;2022-08-21T08:07:27;18.90;76.80
49236;DHT22;35067;48.134;8.378;2022-08-21T08:09:27;19.30;80.00
49236;DHT22;35067;48.134;8.378;2022-08-21T08:11:28;19.50;69.30
49236;DHT22;35067;48.134;8.378;2022-08-21T08:13:29;19.40;80.40
49236;DHT22;35067;48.134;8.378;2022-08-21T08:15:29;19.60;69.00
49236;DHT22;35067;48.134;8.378;2022-08-21T08:17:30;19.90;73.70
49236;DHT22;35067;48.134;8.378;2022-08-21T08:19:32;20.00;76.50
49236;DHT22;35067;48.134;8.378;2022-08-21T08:21:33;20.30;68.90
49236;DHT22;35067;48.134;8.378;2022-08-21T08:23:34;20.40;68.50
49236;DHT22;35067;48.134;8.378;2022-08-21T08:25:35;20.80;65.90
49236;DHT22;35067;48.134;8.378;2022-08-21T08:27:36;20.60;56.70
49236;DHT22;35067;48.134;8.378;2022-08-21T08:29:37;20.10;57.90
49236;DHT22;35067;48.134;8.378;2022-08-21T08:31:38;19.80;62.20
49236;DHT22;35067;48.134;8.378;2022-08-21T08:33:39;19.70;59.50
49236;DHT22;35067;48.134;8.378;2022-08-21T08:35:42;20.00;62.60
49236;DHT22;35067;48.134;8.378;2022-08-21T08:37:45;20.20;60.60
49236;DHT22;35067;48.134;8.378;2022-08-21T08:39:46;20.10;56.80
49236;DHT22;35067;48.134;8.378;2022-08-21T08:41:48;20.10;61.60
49236;DHT22;35067;48.134;8.378;2022-08-21T08:43:59;20.10;58.90
49236;DHT22;35067;48.134;8.378;2022-08-21T08:46:06;20.00;55.70
49236;DHT22;35067;48.134;8.378;2022-08-21T08:48:21;19.90;54.80
49236;DHT22;35067;48.134;8.378;2022-08-21T08:52:49;20.40;55.90
49236;DHT22;35067;48.134;8.378;2022-08-21T08:55:07;20.40;59.10
49236;DHT22;35067;48.134;8.378;2022-08-21T08:57:19;20.80;57.30
49236;DHT22;35067;48.134;8.378;2022-08-21T08:59:26;20.60;52.50
49236;DHT22;35067;48.134;8.378;2022-08-21T09:01:28;20.80;53.30
49236;DHT22;35067;48.134;8.378;2022-08-21T09:03:29;20.50;54.50
49236;DHT22;35067;48.134;8.378;2022-08-21T09:05:43;20.50;54.60
49236;DHT22;35067;48.134;8.378;2022-08-21T09:15:43;21.30;51.70
49236;DHT22;35067;48.134;8.378;2022-08-21T09:18:16;21.20;50.60
49236;DHT22;35067;48.134;8.378;2022-08-21T09:25:55;22.40;50.30
49236;DHT22;35067;48.134;8.378;2022-08-21T09:28:00;22.20;48.20
49236;DHT22;35067;48.134;8.378;2022-08-21T09:30:02;21.90;47.70
49236;DHT22;35067;48.134;8.378;2022-08-21T09:32:19;21.70;48.00
49236;DHT22;35067;48.134;8.378;2022-08-21T09:34:30;21.70;53.60
49236;DHT22;35067;48.134;8.378;2022-08-21T09:36:42;21.60;54.40
49236;DHT22;35067;48.134;8.378;2022-08-21T09:38:52;21.60;53.90
49236;DHT22;35067;48.134;8.378;2022-08-21T09:41:03;21.80;49.20
49236;DHT22;35067;48.134;8.378;2022-08-21T09:43:11;21.80;47.40
49236;DHT22;35067;48.134;8.378;2022-08-21T09:45:18;21.90;48.00
49236;DHT22;35067;48.134;8.378;2022-08-21T09:47:19;22.20;46.90
49236;DHT22;35067;48.134;8.378;2022-08-21T09:49:32;22.10;48.30
49236;DHT22;35067;48.134;8.378;2022-08-21T09:51:36;21.80;48.80
49236;DHT22;35067;48.134;8.378;2022-08-21T09:53:42;22.20;47.60
49236;DHT22;35067;48.134;8.378;2022-08-21T09:55:54;22.50;46.40
49236;DHT22;35067;48.134;8.378;2022-08-21T09:58:19;23.10;44.30
49236;DHT22;35067;48.134;8.378;2022-08-21T10:00:30;23.20;43.60
49236;DHT22;35067;48.134;8.378;2022-08-21T10:02:33;23.50;41.60
49236;DHT22;35067;48.134;8.378;2022-08-21T10:04:36;23.20;42.80
49236;DHT22;35067;48.134;8.378;2022-08-21T10:06:37;23.60;41.30
49236;DHT22;35067;48.134;8.378;2022-08-21T10:08:40;23.80;41.20
49236;DHT22;35067;48.134;8.378;2022-08-21T10:10:41;24.40;40.50
49236;DHT22;35067;48.134;8.378;2022-08-21T10:15:13;24.20;40.50
49236;DHT22;35067;48.134;8.378;2022-08-21T10:17:35;24.40;38.30
49236;DHT22;35067;48.134;8.378;2022-08-21T10:23:02;25.10;37.80
49236;DHT22;35067;48.134;8.378;2022-08-21T10:27:37;26.10;37.60
49236;DHT22;35067;48.134;8.378;2022-08-21T10:29:56;26.80;34.50
49236;DHT22;35067;48.134;8.378;2022-08-21T10:32:10;26.40;34.20
49236;DHT22;35067;48.134;8.378;2022-08-21T10:34:30;26.10;36.40
49236;DHT22;35067;48.134;8.378;2022-08-21T10:37:11;26.40;36.60
49236;DHT22;35067;48.134;8.378;2022-08-21T10:39:35;27.70;33.40
49236;DHT22;35067;48.134;8.378;2022-08-21T10:44:01;28.30;30.40
49236;DHT22;35067;48.134;8.378;2022-08-21T10:46:53;26.30;34.00
49236;DHT22;35067;48.134;8.378;2022-08-21T10:52:44;26.80;34.40
49236;DHT22;35067;48.134;8.378;2022-08-21T10:54:52;26.20;32.80
49236;DHT22;35067;48.134;8.378;2022-08-21T10:57:02;27.30;33.30
49236;DHT22;35067;48.134;8.378;2022-08-21T10:59:27;28.20;31.60
49236;DHT22;35067;48.134;8.378;2022-08-21T11:01:39;28.50;28.80
49236;DHT22;35067;48.134;8.378;2022-08-21T11:06:14;29.20;29.10
49236;DHT22;35067;48.134;8.378;2022-08-21T11:08:29;28.70;28.80
49236;DHT22;35067;48.134;8.378;2022-08-21T11:10:49;29.80;27.60
49236;DHT22;35067;48.134;8.378;2022-08-21T11:12:58;30.30;26.50
49236;DHT22;35067;48.134;8.378;2022-08-21T11:17:39;28.80;28.00
49236;DHT22;35067;48.134;8.378;2022-08-21T11:19:53;30.40;26.90
49236;DHT22;35067;48.134;8.378;2022-08-21T11:22:18;30.70;27.40
49236;DHT22;35067;48.134;8.378;2022-08-21T11:24:35;30.30;27.50
49236;DHT22;35067;48.134;8.378;2022-08-21T11:29:35;30.50;26.90
49236;DHT22;35067;48.134;8.378;2022-08-21T11:38:46;31.30;26.60
49236;DHT22;35067;48.134;8.378;2022-08-21T11:41:28;30.00;27.70
49236;DHT22;35067;48.134;8.378;2022-08-21T11:43:40;30.50;26.70
49236;DHT22;35067;48.134;8.378;2022-08-21T11:50:30;29.50;29.00
49236;DHT22;35067;48.134;8.378;2022-08-21T11:52:40;30.10;27.60
49236;DHT22;35067;48.134;8.378;2022-08-21T11:57:46;31.20;25.90
49236;DHT22;35067;48.134;8.378;2022-08-21T11:59:39;32.20;25.30
49236;DHT22;35067;48.134;8.378;2022-08-21T12:01:43;31.50;25.50
49236;DHT22;35067;48.134;8.378;2022-08-21T12:03:58;32.30;24.90
49236;DHT22;35067;48.134;8.378;2022-08-21T12:06:32;33.80;25.00
49236;DHT22;35067;48.134;8.378;2022-08-21T12:08:45;31.50;24.40
49236;DHT22;35067;48.134;8.378;2022-08-21T12:11:04;33.10;24.40
49236;DHT22;35067;48.134;8.378;2022-08-21T12:13:22;34.20;21.60
49236;DHT22;35067;48.134;8.378;2022-08-21T12:15:27;34.70;22.20
49236;DHT22;35067;48.134;8.378;2022-08-21T12:17:37;34.00;22.20
49236;DHT22;35067;48.134;8.378;2022-08-21T12:19:39;33.80;22.10
49236;DHT22;35067;48.134;8.378;2022-08-21T12:22:10;32.50;23.00
49236;DHT22;35067;48.134;8.378;2022-08-21T12:28:25;35.50;21.60
49236;DHT22;35067;48.134;8.378;2022-08-21T12:33:17;36.30;21.10
49236;DHT22;35067;48.134;8.378;2022-08-21T12:37:37;34.60;21.70
49236;DHT22;35067;48.134;8.378;2022-08-21T12:39:51;33.00;22.60
49236;DHT22;35067;48.134;8.378;2022-08-21T12:42:06;32.40;22.90
49236;DHT22;35067;48.134;8.378;2022-08-21T12:44:11;31.30;24.70
49236;DHT22;35067;48.134;8.378;2022-08-21T12:46:19;30.50;24.40
49236;DHT22;35067;48.134;8.378;2022-08-21T12:48:33;29.40;25.60
49236;DHT22;35067;48.134;8.378;2022-08-21T12:50:52;29.50;26.50
49236;DHT22;35067;48.134;8.378;2022-08-21T12:53:06;30.60;25.70
49236;DHT22;35067;48.134;8.378;2022-08-21T12:55:14;32.90;22.70
49236;DHT22;35067;48.134;8.378;2022-08-21T12:57:22;34.30;21.50
49236;DHT22;35067;48.134;8.378;2022-08-21T12:59:25;33.40;22.40
49236;DHT22;35067;48.134;8.378;2022-08-21T13:01:31;31.20;24.30
49236;DHT22;35067;48.134;8.378;2022-08-21T13:03:36;30.90;24.30
49236;DHT22;35067;48.134;8.378;2022-08-21T13:05:37;31.60;24.70
49236;DHT22;35067;48.134;8.378;2022-08-21T13:07:44;32.90;22.40
49236;DHT22;35067;48.134;8.378;2022-08-21T13:09:49;31.30;23.60
49236;DHT22;35067;48.134;8.378;2022-08-21T13:11:52;32.80;22.50
49236;DHT22;35067;48.134;8.378;2022-08-21T13:13:54;33.70;22.70
49236;DHT22;35067;48.134;8.378;2022-08-21T13:15:59;34.60;21.40
49236;DHT22;35067;48.134;8.378;2022-08-21T13:18:04;35.40;20.80
49236;DHT22;35067;48.134;8.378;2022-08-21T13:20:09;37.10;19.90
49236;DHT22;35067;48.134;8.378;2022-08-21T13:22:19;36.90;19.90
49236;DHT22;35067;48.134;8.378;2022-08-21T13:24:26;37.70;18.40
49236;DHT22;35067;48.134;8.378;2022-08-21T13:26:31;36.90;18.90
49236;DHT22;35067;48.134;8.378;2022-08-21T13:28:34;36.80;19.40
49236;DHT22;35067;48.134;8.378;2022-08-21T13:30:46;37.70;18.60
49236;DHT22;35067;48.134;8.378;2022-08-21T13:32:54;38.30;17.50
49236;DHT22;35067;48.134;8.378;2022-08-21T13:34:57;38.10;17.30
49236;DHT22;35067;48.134;8.378;2022-08-21T13:37:00;36.20;18.90
49236;DHT22;35067;48.134;8.378;2022-08-21T13:39:07;35.00;19.50
49236;DHT22;35067;48.134;8.378;2022-08-21T13:43:24;32.60;21.70
49236;DHT22;35067;48.134;8.378;2022-08-21T13:45:33;30.80;22.90
49236;DHT22;35067;48.134;8.378;2022-08-21T13:47:33;30.10;24.90
49236;DHT22;35067;48.134;8.378;2022-08-21T13:49:39;29.00;25.80
49236;DHT22;35067;48.134;8.378;2022-08-21T13:51:42;28.60;26.30
49236;DHT22;35067;48.134;8.378;2022-08-21T13:53:49;28.30;27.00
49236;DHT22;35067;48.134;8.378;2022-08-21T13:55:55;28.00;26.50
49236;DHT22;35067;48.134;8.378;2022-08-21T13:58:02;27.30;28.90
49236;DHT22;35067;48.134;8.378;2022-08-21T14:00:49;27.70;30.80
49236;DHT22;35067;48.134;8.378;2022-08-21T14:02:52;30.50;24.60
49236;DHT22;35067;48.134;8.378;2022-08-21T14:05:01;32.30;22.00
49236;DHT22;35067;48.134;8.378;2022-08-21T14:07:17;33.70;20.40
49236;DHT22;35067;48.134;8.378;2022-08-21T14:09:31;35.20;20.10
49236;DHT22;35067;48.134;8.378;2022-08-21T14:11:34;35.30;18.90